« Back
NWS Peachtree City, Ga » Text Product » MCN Terminal Aerodrome Forecast


Printer-friendly Version
Current Version              Previous Versions:   1  2  3  4  5  6  7  8  9  

Terminal Aerodrome Forecast

905
FTUS42 KFFC 261736
TAFMCN
TAF
KMCN 261736Z 2618/2718 07006KT P6SM SCT050
     FM270100 10004KT P6SM SCT250
     FM271500 09007KT P6SM FEW045=



USA.gov is the U.S. government's official web portal to all federal, state and local government web resources and services.